Time;durP1;ratioP1;P1;durP2;ratioP2;P2;SDS_P1;SDS_P2;PMS_P1;PMS_P2;Temp;Humidity;BMP_temperature;BMP_pressure;BME280_temperature;BME280_humidity;BME280_pressure;Samples;Min_cycle;Max_cycle;Signal;HPM_P1;HPM_P2
2023/04/06 00:01:41;;;;;;;9.02;5.20;;;1.10;99.90;;;0.29;89.41;97441.31;5011863;28;20473;-48
2023/04/06 00:04:07;;;;;;;9.88;5.72;;;1.10;99.90;;;0.27;89.35;97435.22;5012025;28;20499;-48
2023/04/06 00:06:33;;;;;;;11.80;5.85;;;1.10;99.90;;;0.27;89.74;97443.91;5017417;28;20041;-44
2023/04/06 00:09:00;;;;;;;9.23;6.22;;;1.10;99.90;;;0.24;89.82;97435.25;4995295;28;20041;-44
2023/04/06 00:11:26;;;;;;;9.60;5.63;;;1.10;99.90;;;0.18;90.86;97429.16;5014658;28;20041;-44
2023/04/06 00:13:52;;;;;;;10.13;5.82;;;1.10;99.90;;;0.18;91.74;97434.34;4993224;28;20462;-45
2023/04/06 00:16:18;;;;;;;10.82;5.65;;;1.00;99.90;;;0.14;91.95;97439.50;5008757;28;20033;-45
2023/04/06 00:18:44;;;;;;;10.23;5.55;;;1.00;99.90;;;0.11;90.77;97436.91;5005232;28;20036;-45
2023/04/06 00:21:13;;;;;;;8.50;5.25;;;0.90;99.90;;;0.09;91.35;97433.41;5003948;28;20075;-46
2023/04/06 00:23:39;;;;;;;10.05;5.63;;;0.90;99.90;;;-0.05;92.53;97412.63;5004809;28;20029;-45
2023/04/06 00:26:05;;;;;;;12.73;6.13;;;0.90;99.90;;;-0.04;92.98;97428.16;5006986;28;20036;-45
2023/04/06 00:28:30;;;;;;;12.63;5.88;;;0.80;99.90;;;-0.14;93.37;97420.34;5007424;28;20030;-46
2023/04/06 00:30:56;;;;;;;8.30;5.55;;;0.70;99.90;;;-0.11;94.67;97428.13;5009345;28;20468;-47
2023/04/06 00:33:23;;;;;;;9.43;5.20;;;0.70;99.90;;;-0.15;95.29;97432.44;5010864;28;20087;-47
2023/04/06 00:35:49;;;;;;;8.40;5.03;;;0.70;99.90;;;-0.10;95.29;97430.75;5011524;28;20099;-45
2023/04/06 00:38:15;;;;;;;7.50;5.50;;;0.70;99.90;;;-0.08;96.47;97423.84;4999975;28;20537;-47
2023/04/06 00:40:41;;;;;;;11.25;5.72;;;0.80;99.90;;;0.00;96.73;97423.91;5011675;28;20124;-45
2023/04/06 00:43:09;;;;;;;7.90;5.00;;;0.80;99.90;;;0.03;96.66;97423.91;4998212;28;20029;-48
2023/04/06 00:45:35;;;;;;;8.30;5.38;;;0.90;99.90;;;0.07;97.11;97422.19;5012151;28;20444;-45
2023/04/06 00:48:01;;;;;;;8.90;5.30;;;0.90;99.90;;;0.02;97.28;97414.41;4993149;28;20037;-45
2023/04/06 00:50:27;;;;;;;8.20;5.03;;;0.90;99.90;;;0.07;96.62;97423.06;4988200;28;20057;-45
2023/04/06 00:52:54;;;;;;;6.15;4.50;;;0.90;99.90;;;0.06;96.71;97413.53;5015168;28;20037;-45
2023/04/06 00:55:20;;;;;;;9.43;5.15;;;0.90;99.90;;;0.09;96.06;97418.75;5009145;28;20168;-47
2023/04/06 00:57:46;;;;;;;8.45;5.20;;;0.90;99.90;;;0.13;95.34;97415.31;5013543;28;20041;-49
2023/04/06 01:00:12;;;;;;;7.65;5.35;;;1.00;99.90;;;0.17;94.79;97411.00;5009877;28;20081;-46
2023/04/06 01:02:38;;;;;;;9.20;5.25;;;1.00;99.90;;;0.17;94.95;97411.84;5010752;28;20033;-46
2023/04/06 01:05:05;;;;;;;9.93;5.43;;;1.10;99.90;;;0.19;95.63;97417.91;4994414;28;20036;-46
2023/04/06 01:07:30;;;;;;;9.60;6.22;;;1.10;99.90;;;0.17;96.09;97413.59;4988690;28;20643;-45
2023/04/06 01:09:56;;;;;;;10.63;5.55;;;1.10;99.90;;;0.08;96.57;97400.59;5006286;28;20060;-45
2023/04/06 01:12:22;;;;;;;12.88;5.28;;;1.00;99.90;;;0.03;97.27;97400.56;5004466;28;20508;-46
2023/04/06 01:14:48;;;;;;;12.60;5.50;;;0.90;99.90;;;0.02;98.26;97403.13;4992934;28;20025;-46
2023/04/06 01:17:13;;;;;;;7.88;5.13;;;0.90;99.90;;;-0.05;99.27;97399.66;4976726;28;20200;-49
2023/04/06 01:19:40;;;;;;;8.18;5.07;;;0.80;99.90;;;-0.17;100.00;97395.28;4999612;28;20048;-47
2023/04/06 01:22:06;;;;;;;10.95;5.72;;;0.80;99.90;;;-0.20;100.00;97398.72;4999819;28;20381;-46
2023/04/06 01:24:32;;;;;;;8.55;4.88;;;0.70;99.90;;;-0.30;100.00;97398.66;4985008;28;20454;-49
2023/04/06 01:26:58;;;;;;;10.07;5.38;;;0.60;99.90;;;-0.31;100.00;97402.97;4995445;28;20065;-48
2023/04/06 01:29:24;;;;;;;9.93;5.65;;;0.50;99.90;;;-0.39;100.00;97392.56;5001125;28;20120;-48
2023/04/06 01:31:50;;;;;;;11.15;6.22;;;0.50;99.90;;;-0.41;100.00;97401.19;4985441;28;20037;-47
2023/04/06 01:34:16;;;;;;;8.88;5.88;;;0.50;99.90;;;-0.45;100.00;97394.25;4994864;28;20103;-45
2023/04/06 01:36:42;;;;;;;10.82;6.07;;;0.40;99.90;;;-0.51;100.00;97394.22;4995749;28;20591;-47
2023/04/06 01:39:08;;;;;;;11.60;6.05;;;0.30;99.90;;;-0.53;100.00;97396.78;5004298;28;20087;-46
2023/04/06 01:41:34;;;;;;;10.77;6.47;;;0.30;99.90;;;-0.56;100.00;97390.72;5005085;28;20068;-45
2023/04/06 01:43:59;;;;;;;9.98;6.60;;;0.30;99.90;;;-0.60;100.00;97390.69;5009971;28;20033;-48
2023/04/06 01:46:26;;;;;;;11.48;6.50;;;0.20;99.90;;;-0.65;100.00;97392.38;5004057;28;20815;-48
2023/04/06 01:48:51;;;;;;;11.32;6.50;;;0.20;99.90;;;-0.67;100.00;97388.91;5009172;28;20036;-48
2023/04/06 01:51:17;;;;;;;9.93;6.53;;;0.20;99.90;;;-0.70;100.00;97382.84;4994517;28;20033;-47
2023/04/06 01:53:43;;;;;;;13.18;7.03;;;0.20;99.90;;;-0.72;100.00;97381.97;4997505;28;20052;-46
2023/04/06 01:56:09;;;;;;;13.00;6.70;;;0.10;99.90;;;-0.77;100.00;97377.63;4998990;28;20034;-46
2023/04/06 01:58:35;;;;;;;10.02;6.60;;;0.10;99.90;;;-0.78;100.00;97381.06;5010558;28;20029;-45
2023/04/06 02:01:00;;;;;;;11.13;6.65;;;0.00;99.90;;;-0.82;100.00;97371.53;5000413;28;20452;-46
2023/04/06 02:03:26;;;;;;;10.70;6.93;;;0.00;99.90;;;-0.84;100.00;97380.16;5006529;28;20037;-48
2023/04/06 02:05:52;;;;;;;11.30;6.53;;;0.00;99.90;;;-0.87;100.00;97374.97;5003698;28;20037;-45
2023/04/06 02:08:17;;;;;;;11.63;7.47;;;0.00;99.90;;;-0.89;100.00;97376.66;5007744;28;20052;-49
2023/04/06 02:10:43;;;;;;;10.45;6.68;;;0.00;99.90;;;-0.92;100.00;97380.09;5002127;28;20033;-45
2023/04/06 02:13:09;;;;;;;13.40;6.25;;;-0.10;99.90;;;-0.94;100.00;97381.81;5008809;28;20104;-49
2023/04/06 02:15:34;;;;;;;9.40;6.40;;;-0.10;99.90;;;-0.98;100.00;97377.47;5003546;28;20034;-46
2023/04/06 02:18:00;;;;;;;11.77;6.82;;;-0.10;99.90;;;-1.06;100.00;97366.16;5011610;28;20056;-48
2023/04/06 02:20:26;;;;;;;12.15;6.75;;;-0.20;99.90;;;-1.02;100.00;97373.13;5002901;28;20025;-48
2023/04/06 02:22:52;;;;;;;9.75;6.25;;;-0.20;99.90;;;-1.03;100.00;97373.97;5011700;28;20048;-47
2023/04/06 02:25:17;;;;;;;12.10;7.30;;;-0.20;99.90;;;-1.04;100.00;97367.03;4995746;28;20045;-48
2023/04/06 02:27:43;;;;;;;10.85;6.68;;;-0.20;99.90;;;-1.06;100.00;97368.75;5001507;28;20473;-46
2023/04/06 02:30:09;;;;;;;13.02;7.00;;;-0.20;99.90;;;-1.26;100.00;97334.94;5005747;28;20034;-45
2023/04/06 02:32:35;;;;;;;11.63;6.65;;;-0.20;99.90;;;-1.11;100.00;97366.13;5002368;28;20221;-45
2023/04/06 02:35:01;;;;;;;10.07;6.40;;;-0.20;99.90;;;-1.12;100.00;97376.47;5020245;23;20052;-41
2023/04/06 02:37:27;;;;;;;12.70;6.78;;;-0.30;99.90;;;-1.15;100.00;97374.72;5002740;28;20100;-41
2023/04/06 02:39:52;;;;;;;13.20;6.68;;;-0.30;99.90;;;-1.17;100.00;97376.41;4999002;28;20040;-41
2023/04/06 02:42:18;;;;;;;12.15;6.93;;;-0.30;99.90;;;-1.21;100.00;97365.19;5007762;28;20048;-41
2023/04/06 02:44:44;;;;;;;12.48;7.10;;;-0.30;99.90;;;-1.21;100.00;97369.50;5011776;28;20037;-41
2023/04/06 02:47:10;;;;;;;11.13;6.68;;;-0.30;99.90;;;-1.26;100.00;97358.22;5006755;28;20040;-41
2023/04/06 02:49:36;;;;;;;11.50;6.70;;;-0.40;99.90;;;-1.22;100.00;97367.75;4993564;28;20041;-41
2023/04/06 02:52:02;;;;;;;12.07;7.00;;;-0.40;99.90;;;-1.24;100.00;97361.69;5011192;28;20037;-41
2023/04/06 02:54:28;;;;;;;10.25;6.68;;;-0.40;99.90;;;-1.25;100.00;97362.56;5013534;28;20055;-41
2023/04/06 02:56:54;;;;;;;11.63;6.93;;;-0.40;99.90;;;-1.25;100.00;97362.56;5017895;28;20029;-41
2023/04/06 02:59:20;;;;;;;10.82;6.72;;;-0.40;99.90;;;-1.28;100.00;97363.38;5005311;28;20473;-41
2023/04/06 03:01:45;;;;;;;9.45;6.53;;;-0.40;99.90;;;-1.30;100.00;97362.50;5010135;28;20035;-40
2023/04/06 03:04:11;;;;;;;11.50;6.85;;;-0.40;99.90;;;-1.32;100.00;97361.63;5012661;28;20329;-41
2023/04/06 03:06:37;;;;;;;11.18;6.68;;;-0.40;99.90;;;-1.36;100.00;97354.72;5014433;28;20485;-41
2023/04/06 03:09:03;;;;;;;10.63;6.57;;;-0.50;99.90;;;-1.38;100.00;97351.25;5012865;28;20037;-41
2023/04/06 03:11:29;;;;;;;10.40;6.38;;;-0.50;99.90;;;-1.41;100.00;97351.19;5014273;28;20083;-41
2023/04/06 03:13:55;;;;;;;10.95;7.10;;;-0.50;99.90;;;-1.42;100.00;97350.34;5012357;28;20041;-41
2023/04/06 03:16:20;;;;;;;9.48;7.07;;;-0.50;99.90;;;-1.43;100.00;97348.59;5009758;28;20028;-41
2023/04/06 03:18:47;;;;;;;11.32;6.38;;;-0.50;99.90;;;-1.42;100.00;97352.94;5014779;28;20180;-41
2023/04/06 03:21:16;;;;;;;13.15;6.82;;;-0.50;99.90;;;-1.47;100.00;97351.13;5011567;28;20030;-41
2023/04/06 03:23:42;;;;;;;10.18;6.22;;;-0.50;99.90;;;-1.54;100.00;97343.31;5013764;28;20505;-41
2023/04/06 03:26:08;;;;;;;10.32;6.30;;;-0.50;99.90;;;-1.57;100.00;97351.03;5011065;28;20052;-41
2023/04/06 03:28:34;;;;;;;11.18;6.55;;;-0.50;99.90;;;-1.73;100.00;97334.50;5008138;28;20037;-41
2023/04/06 03:30:59;;;;;;;10.40;6.45;;;-0.60;99.90;;;-1.65;100.00;97356.97;5010203;28;20476;-41
2023/04/06 03:33:28;;;;;;;14.32;6.93;;;-0.70;99.90;;;-1.68;100.00;97363.00;5015833;28;20386;-41
2023/04/06 03:35:54;;;;;;;9.75;6.30;;;-0.70;99.90;;;-1.73;100.00;97354.31;5009686;28;20477;-41
2023/04/06 03:38:20;;;;;;;11.63;6.57;;;-0.70;99.90;;;-1.70;100.00;97358.69;4996079;28;20021;-41
2023/04/06 03:40:46;;;;;;;10.95;6.53;;;-0.70;99.90;;;-1.69;100.00;97362.97;5009769;28;20037;-41
2023/04/06 03:43:11;;;;;;;11.52;7.32;;;-0.80;99.90;;;-1.71;100.00;97359.50;5014792;28;20033;-41
2023/04/06 03:45:37;;;;;;;12.13;6.75;;;-0.80;99.90;;;-1.68;100.00;97365.59;5003019;28;20044;-42
2023/04/06 03:48:04;;;;;;;12.30;6.88;;;-0.80;99.90;;;-1.68;100.00;97363.00;5011668;28;20569;-41
2023/04/06 03:50:30;;;;;;;10.82;7.15;;;-0.80;99.90;;;-1.65;100.00;97372.50;5004959;28;20060;-39
2023/04/06 03:52:56;;;;;;;9.68;7.15;;;-0.70;99.90;;;-1.62;100.00;97367.38;5006385;28;20168;-41
2023/04/06 03:55:22;;;;;;;12.98;7.57;;;-0.70;99.90;;;-1.62;100.00;97372.53;5012226;28;20030;-41
2023/04/06 03:57:47;;;;;;;10.93;7.10;;;-0.60;99.90;;;-1.59;100.00;97373.44;5009251;28;20124;-41
2023/04/06 04:00:13;;;;;;;11.20;6.95;;;-0.60;99.90;;;-1.57;100.00;97366.56;5006224;28;20577;-39
2023/04/06 04:02:39;;;;;;;11.50;6.72;;;-0.60;99.90;;;-1.52;100.00;97369.22;5017655;28;20026;-39
2023/04/06 04:05:06;;;;;;;13.18;7.30;;;-0.50;99.90;;;-1.50;100.00;97371.81;5008805;28;20489;-39
2023/04/06 04:07:31;;;;;;;11.55;6.55;;;-0.50;99.90;;;-1.47;100.00;97372.72;5011101;28;20361;-40
2023/04/06 04:09:57;;;;;;;12.30;6.93;;;-0.50;99.90;;;-1.44;100.00;97374.44;5010305;28;20095;-39
2023/04/06 04:12:23;;;;;;;10.65;6.78;;;-0.50;99.90;;;-1.44;100.00;97377.03;5012642;28;20488;-39
2023/04/06 04:14:48;;;;;;;10.60;6.25;;;-0.50;99.90;;;-1.50;100.00;97366.63;5011631;28;20124;-39
2023/04/06 04:17:14;;;;;;;12.38;7.18;;;-0.50;99.90;;;-1.45;100.00;97378.75;5011518;28;20025;-39
2023/04/06 04:19:40;;;;;;;9.65;6.85;;;-0.50;99.90;;;-1.47;100.00;97380.47;4997245;28;20036;-39
2023/04/06 04:22:06;;;;;;;10.90;6.97;;;-0.60;99.90;;;-1.45;100.00;97385.66;5010554;28;20635;-39
2023/04/06 04:24:32;;;;;;;11.20;6.35;;;-0.50;99.90;;;-1.43;100.00;97382.22;5007422;28;20064;-39
2023/04/06 04:27:00;;;;;;;11.55;6.72;;;-0.50;99.90;;;-1.41;100.00;97384.84;5015073;28;20112;-39
2023/04/06 04:29:26;;;;;;;11.48;6.28;;;-0.50;99.90;;;-1.45;100.00;97376.19;5010765;28;20058;-39
2023/04/06 04:31:52;;;;;;;11.88;7.47;;;-0.50;99.90;;;-1.45;100.00;97390.84;5011196;28;20512;-39
2023/04/06 04:34:20;;;;;;;10.52;6.18;;;-0.50;99.90;;;-1.42;100.00;97386.56;5012292;28;20038;-39
2023/04/06 04:36:46;;;;;;;11.23;6.93;;;-0.50;99.90;;;-1.40;100.00;97383.97;5011660;28;20032;-39
2023/04/06 04:39:12;;;;;;;11.02;7.03;;;-0.40;99.90;;;-1.36;100.00;97384.03;5007078;28;20025;-40
2023/04/06 04:41:37;;;;;;;13.43;6.88;;;-0.40;99.90;;;-1.35;100.00;97383.19;5012370;28;20095;-39
2023/04/06 04:44:03;;;;;;;11.45;6.60;;;-0.40;99.90;;;-1.29;100.00;97384.97;4994290;28;20516;-39
2023/04/06 04:46:29;;;;;;;11.50;6.97;;;-0.40;99.90;;;-1.28;100.00;97386.69;5011036;28;20025;-39
2023/04/06 04:48:55;;;;;;;10.55;6.85;;;-0.30;99.90;;;-1.27;100.00;97390.16;5005427;28;20068;-40
2023/04/06 04:51:20;;;;;;;10.15;6.22;;;-0.30;99.90;;;-1.28;100.00;97388.41;5009894;28;20579;-40
2023/04/06 04:53:46;;;;;;;11.10;6.70;;;-0.40;99.90;;;-1.26;100.00;97391.88;5010599;28;20040;-40
2023/04/06 04:56:12;;;;;;;14.07;6.80;;;-0.40;99.90;;;-1.26;100.00;97391.88;5013863;28;20036;-40
2023/04/06 04:58:37;;;;;;;13.00;7.13;;;-0.30;99.90;;;-1.25;100.00;97391.88;5013183;28;20394;-40
2023/04/06 05:01:03;;;;;;;9.02;6.80;;;-0.30;99.90;;;-1.20;100.00;97397.97;5008065;28;20048;-40
2023/04/06 05:03:29;;;;;;;9.98;6.40;;;-0.30;99.90;;;-1.14;100.00;97389.41;5004794;28;20063;-40
2023/04/06 05:05:55;;;;;;;9.20;6.60;;;-0.20;99.90;;;-1.11;100.00;97392.03;5002812;28;20143;-40
2023/04/06 05:08:21;;;;;;;11.30;6.72;;;-0.20;99.90;;;-1.08;100.00;97393.75;5008473;28;20745;-40
2023/04/06 05:10:47;;;;;;;10.63;6.85;;;-0.20;99.90;;;-1.04;100.00;97393.81;5005179;28;20083;-40
2023/04/06 05:13:14;;;;;;;13.45;6.38;;;-0.10;99.90;;;-1.00;100.00;97392.13;5006290;28;20041;-40
2023/04/06 05:15:40;;;;;;;11.85;7.10;;;-0.10;99.90;;;-0.94;100.00;97392.16;4987809;28;20452;-40
2023/04/06 05:18:09;;;;;;;12.52;7.20;;;0.00;99.90;;;-0.88;100.00;97399.09;4986830;28;20094;-40
2023/04/06 05:20:36;;;;;;;13.15;7.28;;;0.00;99.90;;;-0.83;100.00;97400.00;4991100;28;20029;-40
2023/04/06 05:23:02;;;;;;;13.90;7.57;;;0.10;99.90;;;-0.80;100.00;97392.28;5011626;28;20504;-40
2023/04/06 05:25:28;;;;;;;12.00;7.32;;;0.10;99.90;;;-0.69;100.00;97400.97;5010271;28;20037;-40
2023/04/06 05:27:54;;;;;;;12.70;7.47;;;0.20;99.90;;;-0.63;100.00;97400.16;4998143;28;20045;-40
2023/04/06 05:30:21;;;;;;;12.90;7.30;;;0.30;99.90;;;-0.56;100.00;97407.13;5004564;28;20029;-40
2023/04/06 05:32:46;;;;;;;13.73;7.50;;;0.30;99.90;;;-0.48;100.00;97415.81;5006987;28;20033;-40
2023/04/06 05:35:12;;;;;;;11.63;6.78;;;0.40;99.90;;;-0.39;100.00;97415.03;4992226;28;20397;-40
2023/04/06 05:37:39;;;;;;;11.55;6.95;;;0.50;99.90;;;-0.34;100.00;97405.56;5010275;28;20030;-40
2023/04/06 05:40:05;;;;;;;12.18;6.82;;;0.60;99.90;;;-0.23;100.00;97410.81;5007765;28;20029;-40
2023/04/06 05:42:39;;;;;;;11.30;7.47;;;0.70;99.90;;;-0.14;100.00;97410.84;5012497;28;20438;-40
2023/04/06 05:45:06;;;;;;;11.73;6.75;;;0.70;99.90;;;-0.08;100.00;97420.38;5010835;28;20030;-40
2023/04/06 05:47:32;;;;;;;12.10;6.90;;;0.80;99.90;;;0.00;100.00;97413.53;5010900;28;20029;-40
2023/04/06 05:49:58;;;;;;;11.15;7.10;;;0.90;99.90;;;0.05;100.00;97414.38;5007822;28;20048;-40
2023/04/06 05:52:23;;;;;;;13.23;7.22;;;1.00;99.90;;;0.17;100.00;97416.19;5011154;28;20359;-40
2023/04/06 05:54:49;;;;;;;12.75;7.15;;;1.10;99.90;;;0.25;100.00;97414.50;5016677;28;20111;-40
2023/04/06 05:57:16;;;;;;;11.98;6.93;;;1.10;99.90;;;0.34;100.00;97419.72;5007935;28;20034;-40
2023/04/06 05:59:42;;;;;;;14.30;7.72;;;1.20;99.90;;;0.40;100.00;97423.22;5009525;28;20527;-40
2023/04/06 06:02:08;;;;;;;10.00;6.80;;;1.30;99.90;;;0.50;100.00;97419.75;5007698;28;20329;-40
2023/04/06 06:04:33;;;;;;;10.43;6.75;;;1.40;99.90;;;0.56;100.00;97417.19;5010710;28;20045;-39
2023/04/06 06:07:00;;;;;;;13.40;7.10;;;1.50;99.90;;;0.67;100.00;97423.28;5010873;28;20567;-40
2023/04/06 06:09:25;;;;;;;11.65;7.25;;;1.50;99.90;;;0.73;100.00;97427.63;5016626;28;20033;-40
2023/04/06 06:11:51;;;;;;;12.02;7.45;;;1.60;99.90;;;0.82;100.00;97430.22;5014905;28;20041;-40
2023/04/06 06:14:17;;;;;;;11.50;6.78;;;1.70;99.90;;;0.89;100.00;97431.97;5012249;28;20033;-40
2023/04/06 06:16:43;;;;;;;9.77;6.78;;;1.80;99.90;;;1.00;100.00;97437.19;5012387;28;20441;-40
2023/04/06 06:19:09;;;;;;;15.35;7.35;;;1.90;99.90;;;1.09;100.00;97436.34;5008904;28;20029;-40
2023/04/06 06:21:35;;;;;;;16.50;8.43;;;1.90;99.90;;;1.17;98.95;97431.13;4999491;28;20041;-41
2023/04/06 06:24:01;;;;;;;17.27;7.85;;;2.00;99.90;;;1.25;97.38;97432.88;5007760;28;20032;-39
2023/04/06 06:26:26;;;;;;;14.32;8.45;;;2.10;99.90;;;1.33;94.97;97431.16;5010958;28;20107;-39
2023/04/06 06:28:52;;;;;;;16.27;8.70;;;2.20;99.90;;;1.43;93.81;97429.41;5009883;28;20033;-40
2023/04/06 06:31:20;;;;;;;12.63;8.57;;;2.30;99.90;;;1.47;93.41;97425.09;5007262;28;20481;-40
2023/04/06 06:33:47;;;;;;;12.43;7.85;;;2.40;99.90;;;1.66;93.01;97433.75;5009575;28;20160;-40
2023/04/06 06:36:13;;;;;;;15.68;8.40;;;2.50;99.90;;;1.67;90.46;97431.16;5016201;28;20477;-40
2023/04/06 06:38:39;;;;;;;13.88;8.13;;;2.60;99.90;;;1.79;89.47;97440.66;5013815;28;20309;-41
2023/04/06 06:41:04;;;;;;;13.20;7.35;;;2.60;99.90;;;1.90;89.21;97440.63;5010845;28;20025;-41
2023/04/06 06:43:30;;;;;;;15.18;7.32;;;2.70;99.90;;;2.03;88.92;97436.28;5011332;28;20033;-40
2023/04/06 06:45:56;;;;;;;16.73;8.13;;;2.90;99.90;;;2.13;87.11;97437.97;5009132;28;20068;-40
2023/04/06 06:48:21;;;;;;;14.45;7.80;;;3.00;99.90;;;2.23;86.76;97436.22;4994166;28;20079;-40
2023/04/06 06:50:48;;;;;;;11.13;7.40;;;3.10;99.90;;;2.35;86.00;97437.91;5006477;28;20119;-40
2023/04/06 06:53:14;;;;;;;11.52;7.35;;;3.20;99.90;;;2.48;85.05;97435.25;5008658;28;20760;-40
2023/04/06 06:55:40;;;;;;;12.07;7.30;;;3.30;99.90;;;2.60;84.91;97444.75;5001847;28;20033;-40
2023/04/06 06:58:06;;;;;;;13.95;7.72;;;3.40;99.90;;;2.72;83.96;97443.81;5007689;28;20028;-39
2023/04/06 07:00:32;;;;;;;12.38;7.30;;;3.50;99.90;;;2.80;81.07;97439.44;5013593;28;20033;-40
2023/04/06 07:02:58;;;;;;;11.65;7.90;;;3.60;99.90;;;2.96;80.54;97449.75;5014063;28;20044;-40
2023/04/06 07:05:23;;;;;;;14.25;7.82;;;3.70;99.90;;;2.91;79.22;97420.25;5017823;28;20084;-40
2023/04/06 07:07:50;;;;;;;13.30;7.90;;;3.80;99.90;;;3.16;76.77;97444.41;5007240;28;20321;-40
2023/04/06 07:10:15;;;;;;;13.00;8.00;;;3.90;99.90;;;3.26;76.54;97440.88;5006286;28;20037;-40
2023/04/06 07:12:41;;;;;;;15.43;7.68;;;4.10;99.90;;;3.11;75.23;97409.72;5004172;28;20075;-40
2023/04/06 07:15:07;;;;;;;14.70;7.43;;;4.10;99.90;;;3.44;74.42;97442.47;5008818;28;20056;-40
2023/04/06 07:17:33;;;;;;;13.90;8.30;;;4.20;99.90;;;3.54;74.66;97443.28;5015129;28;20057;-40
2023/04/06 07:19:59;;;;;;;12.50;7.82;;;4.30;99.90;;;3.66;73.13;97460.56;5009096;28;20157;-43
2023/04/06 07:22:25;;;;;;;15.65;8.07;;;4.40;99.90;;;3.76;72.51;97451.78;5008395;28;20532;-40
2023/04/06 07:24:50;;;;;;;15.75;8.13;;;4.50;99.90;;;3.89;71.79;97456.00;5013063;28;20404;-40
2023/04/06 07:27:17;;;;;;;12.88;7.65;;;4.60;99.90;;;3.96;72.61;97452.44;5016661;28;20041;-40
2023/04/06 07:29:42;;;;;;;13.05;7.82;;;4.70;99.90;;;4.07;71.66;97456.69;5016984;28;20328;-40
2023/04/06 07:32:08;;;;;;;11.63;7.82;;;4.80;99.90;;;4.19;70.96;97459.19;5011128;28;20037;-41
2023/04/06 07:34:34;;;;;;;14.30;9.05;;;4.90;99.90;;;4.28;69.35;97450.41;5014163;28;20505;-40
2023/04/06 07:37:00;;;;;;;15.43;8.30;;;5.10;99.90;;;4.38;69.96;97438.97;5009710;28;20268;-40
2023/04/06 07:39:26;;;;;;;14.98;8.48;;;5.20;99.90;;;4.53;67.89;97454.44;5007283;28;20025;-41
2023/04/06 07:41:52;;;;;;;11.35;7.32;;;5.30;99.90;;;4.63;66.89;97450.00;5002882;28;20132;-40
2023/04/06 07:44:18;;;;;;;12.65;8.70;;;5.40;99.90;;;4.76;65.92;97458.53;5015532;28;20115;-40
2023/04/06 07:46:43;;;;;;;11.52;7.60;;;5.50;99.90;;;4.87;64.98;97455.78;4995457;28;20127;-40
2023/04/06 07:49:09;;;;;;;17.55;7.65;;;5.60;99.90;;;4.93;64.65;97447.84;4985448;28;20038;-41
2023/04/06 07:51:39;;;;;;;11.93;7.45;;;5.70;99.90;;;5.10;64.05;97453.72;5005228;28;20148;-41
2023/04/06 07:54:05;;;;;;;13.68;7.65;;;5.80;99.90;;;5.23;62.64;97456.16;5009040;28;20022;-41
2023/04/06 07:56:30;;;;;;;14.38;8.43;;;5.90;99.90;;;5.32;62.84;97454.25;5011437;28;20017;-40
2023/04/06 07:58:57;;;;;;;13.05;7.43;;;6.00;99.90;;;5.51;61.61;97456.59;5012744;28;20087;-40
2023/04/06 08:01:23;;;;;;;13.85;7.38;;;6.10;99.90;;;5.60;61.26;97460.78;5012550;28;20359;-40
2023/04/06 08:03:50;;;;;;;12.10;8.15;;;6.20;99.90;;;5.70;60.16;97455.38;5007571;28;20152;-41
2023/04/06 08:06:16;;;;;;;16.83;9.85;;;6.40;99.90;;;5.73;60.23;97457.09;5009282;28;20041;-41
2023/04/06 08:08:42;;;;;;;14.25;8.70;;;6.40;99.90;;;5.85;60.28;97450.78;4991473;28;20029;-41
2023/04/06 08:11:08;;;;;;;14.40;7.63;;;6.50;99.90;;;5.92;60.22;97448.03;5005399;28;20102;-41
2023/04/06 08:13:34;;;;;;;16.30;8.55;;;6.60;99.90;;;6.03;55.80;97465.31;5008276;28;20770;-42
2023/04/06 08:16:06;;;;;;;12.77;8.00;;;6.70;99.90;;;6.16;56.23;97461.63;5005992;28;20038;-42
2023/04/06 08:18:32;;;;;;;19.15;8.45;;;6.80;99.90;;;6.27;55.59;97459.66;5015074;28;20162;-42
2023/04/06 08:20:57;;;;;;;12.30;8.65;;;6.90;99.90;;;6.35;56.17;97462.13;5008309;28;20033;-41
2023/04/06 08:23:23;;;;;;;14.25;8.57;;;6.90;99.90;;;6.44;56.47;97464.59;5006502;28;24895;-41
2023/04/06 08:25:49;;;;;;;16.23;9.07;;;7.00;99.90;;;6.60;55.52;97464.25;5005107;28;20034;-41
2023/04/06 08:28:15;;;;;;;15.30;7.82;;;7.20;99.90;;;6.81;55.50;97455.09;5000160;28;20117;-41
2023/04/06 08:30:42;;;;;;;15.75;8.38;;;7.40;99.90;;;6.93;55.14;97457.47;5005029;28;20893;-41
2023/04/06 08:33:08;;;;;;;15.88;8.25;;;7.50;99.90;;;7.01;54.56;97459.91;5015088;28;20040;-43
2023/04/06 08:35:34;;;;;;;17.35;8.70;;;7.60;99.90;;;7.07;53.98;97458.03;5024490;23;20073;-46
2023/04/06 08:38:00;;;;;;;16.60;8.52;;;7.70;99.90;;;7.14;53.58;97457.88;5009161;28;20549;-49
2023/04/06 08:40:27;;;;;;;12.02;7.82;;;7.70;99.90;;;7.23;53.05;97460.28;4992683;28;20513;-48
2023/04/06 08:42:55;;;;;;;12.02;7.65;;;7.80;99.90;;;7.30;52.54;97458.41;4989564;28;20091;-46
2023/04/06 08:45:22;;;;;;;12.32;8.07;;;7.80;99.60;;;7.34;52.97;97444.31;4992606;28;20536;-49
2023/04/06 08:47:52;;;;;;;19.42;8.98;;;7.90;99.80;;;7.45;51.76;97451.03;5000886;28;21498;-48
2023/04/06 08:50:18;;;;;;;12.77;8.05;;;8.00;99.10;;;7.48;51.42;97459.75;4994706;28;20554;-48
2023/04/06 08:52:47;;;;;;;14.18;9.05;;;8.10;99.10;;;7.53;51.98;97460.50;4999786;28;20041;-48
2023/04/06 08:55:14;;;;;;;18.10;8.55;;;8.10;98.90;;;7.54;51.46;97449.97;4995128;28;20056;-45
2023/04/06 08:57:40;;;;;;;17.55;9.18;;;8.20;98.60;;;7.69;50.87;97453.13;4999191;28;20592;-47
2023/04/06 09:00:10;;;;;;;11.55;8.07;;;8.20;98.20;;;7.75;50.65;97450.31;5001158;28;20066;-45
2023/04/06 09:02:42;;;;;;;16.25;9.00;;;8.30;98.00;;;7.65;49.17;97436.59;5000999;28;20097;-49
2023/04/06 09:05:10;;;;;;;18.23;9.10;;;8.30;97.20;;;7.86;48.94;97447.44;5004472;28;20026;-46
2023/04/06 09:07:36;;;;;;;15.85;8.30;;;8.40;97.10;;;7.85;48.99;97446.59;5011394;28;20033;-46
2023/04/06 09:10:04;;;;;;;12.77;8.30;;;8.40;96.80;;;7.85;49.26;97449.22;4999085;28;20087;-48
2023/04/06 09:12:31;;;;;;;15.75;9.35;;;8.40;96.40;;;7.86;48.44;97444.81;5006119;28;20115;-48
2023/04/06 09:14:59;;;;;;;12.75;7.88;;;8.40;96.30;;;7.95;49.05;97439.31;5008189;28;20033;-45
2023/04/06 09:17:28;;;;;;;15.38;8.38;;;8.50;96.50;;;8.01;46.28;97447.91;5004973;28;20077;-48
2023/04/06 09:19:54;;;;;;;12.60;6.95;;;8.60;94.60;;;8.13;46.97;97441.50;4988722;28;20103;-45
2023/04/06 09:22:20;;;;;;;12.35;7.70;;;8.60;94.90;;;8.17;46.62;97439.63;4994997;28;20021;-47
2023/04/06 09:24:52;;;;;;;12.30;7.95;;;8.70;94.70;;;8.21;45.79;97450.00;4990185;28;20528;-46
2023/04/06 09:27:31;;;;;;;12.90;8.25;;;8.80;94.10;;;8.28;46.65;97447.22;4996264;28;20056;-45
2023/04/06 09:30:16;;;;;;;13.65;8.98;;;8.80;94.50;;;8.32;46.25;97449.72;4996712;28;20320;-46
2023/04/06 09:32:47;;;;;;;16.42;8.50;;;8.90;93.80;;;8.38;47.45;97454.81;4990560;28;20029;-45
2023/04/06 09:35:13;;;;;;;11.88;7.78;;;8.90;94.90;;;8.49;46.84;97449.31;4998804;28;20045;-45
2023/04/06 09:37:39;;;;;;;14.98;9.13;;;9.00;94.70;;;8.51;45.82;97446.63;4985527;28;20033;-47
2023/04/06 09:40:07;;;;;;;13.10;7.88;;;9.10;93.90;;;8.50;46.63;97451.00;5005274;28;20486;-48
2023/04/06 09:42:34;;;;;;;15.88;8.45;;;9.10;93.90;;;8.51;46.28;97439.59;4999716;28;20038;-45
2023/04/06 09:45:00;;;;;;;12.23;7.40;;;9.10;93.70;;;8.64;45.29;97439.25;5001132;28;20030;-47
2023/04/06 09:47:26;;;;;;;13.65;8.45;;;9.20;93.20;;;8.74;45.48;97432.81;5002122;28;20033;-49
2023/04/06 09:49:58;;;;;;;14.13;8.35;;;9.30;93.20;;;8.87;45.17;97443.88;4995808;28;20033;-48
2023/04/06 09:52:33;;;;;;;14.63;8.38;;;9.40;92.60;;;8.82;44.86;97441.34;4998129;28;20586;-49
2023/04/06 09:55:05;;;;;;;13.20;8.23;;;9.40;92.60;;;8.85;44.92;97443.06;4994116;28;20641;-49
2023/04/06 09:57:54;;;;;;;11.00;7.80;;;9.40;92.40;;;8.94;43.82;97434.88;4986256;28;20025;-49
2023/04/06 10:00:23;;;;;;;16.65;7.60;;;9.50;92.00;;;8.94;42.44;97433.09;5002471;28;20581;-47
2023/04/06 10:03:33;;;;;;;12.85;6.72;;;9.50;90.40;;;8.95;42.65;97432.22;4968859;28;20049;-49
2023/04/06 10:06:10;;;;;;;10.52;6.88;;;9.50;90.30;;;9.05;43.69;97431.94;4974787;28;20030;-47
2023/04/06 10:08:41;;;;;;;16.52;8.45;;;9.60;90.90;;;9.17;42.56;97431.56;5001020;28;20060;-47
2023/04/06 10:11:08;;;;;;;13.77;8.52;;;9.70;90.20;;;9.11;41.17;97426.47;4983131;28;20433;-48
2023/04/06 10:13:35;;;;;;;10.73;7.07;;;9.70;88.70;;;9.14;41.91;97426.38;4971880;28;20037;-45
2023/04/06 10:16:01;;;;;;;13.93;8.05;;;9.70;88.80;;;9.18;43.53;97426.22;4993030;28;20025;-47